createdAt,value
2022-12-15T00:02:21.107Z,27.20
2022-12-15T00:05:07.084Z,19.80
2022-12-15T00:07:53.749Z,18.27
2022-12-15T00:10:39.448Z,23.00
2022-12-15T00:13:32.374Z,16.70
2022-12-15T00:16:18.677Z,16.93
2022-12-15T00:19:04.487Z,16.63
2022-12-15T00:21:50.297Z,17.30
2022-12-15T00:24:36.125Z,17.70
2022-12-15T00:27:22.129Z,16.37
2022-12-15T00:30:07.893Z,17.00
2022-12-15T00:32:53.231Z,20.80
2022-12-15T00:35:39.002Z,13.97
2022-12-15T00:38:31.213Z,19.93
2022-12-15T00:41:01.331Z,16.63
2022-12-15T00:43:34.913Z,14.60
2022-12-15T00:46:21.682Z,17.03
2022-12-15T00:48:49.199Z,13.70
2022-12-15T00:51:17.276Z,15.30
2022-12-15T00:54:03.614Z,13.10
2022-12-15T00:56:50.055Z,16.07
2022-12-15T00:59:36.246Z,19.70
2022-12-15T01:02:22.976Z,15.80
2022-12-15T01:05:08.408Z,15.20
2022-12-15T01:07:53.559Z,19.60
2022-12-15T01:10:39.620Z,15.50
2022-12-15T01:13:24.998Z,14.50
2022-12-15T01:16:10.549Z,12.53
2022-12-15T01:18:55.952Z,15.10
2022-12-15T01:21:25.044Z,12.50
2022-12-15T01:23:53.448Z,16.40
2022-12-15T01:26:20.468Z,13.03
2022-12-15T01:28:47.487Z,13.97
2022-12-15T01:31:14.555Z,13.83
2022-12-15T01:33:43.784Z,15.37
2022-12-15T01:36:11.338Z,14.07
2022-12-15T01:38:38.248Z,14.80
2022-12-15T01:41:09.690Z,14.40
2022-12-15T01:43:40.386Z,10.67
2022-12-15T01:46:16.901Z,13.73
2022-12-15T01:48:58.798Z,14.93
2022-12-15T01:51:43.094Z,13.47
2022-12-15T01:54:19.243Z,13.33
2022-12-15T01:56:57.146Z,13.87
2022-12-15T01:59:50.835Z,14.30
2022-12-15T02:02:21.512Z,11.30
2022-12-15T02:04:51.927Z,12.50
2022-12-15T02:07:19.558Z,11.17
2022-12-15T02:09:48.907Z,12.07
2022-12-15T02:12:21.958Z,13.33
2022-12-15T02:15:10.972Z,10.43
2022-12-15T02:17:46.583Z,13.10
2022-12-15T02:20:53.643Z,11.20
2022-12-15T02:23:45.613Z,14.50
2022-12-15T02:26:51.767Z,12.97
2022-12-15T02:30:16.900Z,13.20
2022-12-15T02:33:15.339Z,11.00
2022-12-15T02:35:56.606Z,16.77
2022-12-15T02:38:37.144Z,14.10
2022-12-15T02:41:06.514Z,17.67
2022-12-15T02:43:37.187Z,13.77
2022-12-15T02:46:12.858Z,14.63
2022-12-15T02:48:53.285Z,14.90
2022-12-15T02:51:39.303Z,12.47
2022-12-15T02:55:06.029Z,11.70
2022-12-15T02:58:03.574Z,10.87
2022-12-15T03:00:38.040Z,14.50
2022-12-15T03:03:05.290Z,12.40
2022-12-15T03:05:32.795Z,14.47
2022-12-15T03:07:59.720Z,14.33
2022-12-15T03:10:27.108Z,16.53
2022-12-15T03:12:58.871Z,11.90
2022-12-15T03:15:28.055Z,10.07
2022-12-15T03:17:58.957Z,11.80
2022-12-15T03:20:25.915Z,14.60
2022-12-15T03:22:53.899Z,9.67
2022-12-15T03:25:20.829Z,10.67
2022-12-15T03:27:47.780Z,10.60
2022-12-15T03:30:15.184Z,13.17
2022-12-15T03:32:42.278Z,11.17
2022-12-15T03:35:09.401Z,14.30
2022-12-15T03:37:36.369Z,12.33
2022-12-15T03:40:03.507Z,12.47
2022-12-15T03:42:51.449Z,14.00
2022-12-15T03:45:26.129Z,14.63
2022-12-15T03:47:54.762Z,13.93
2022-12-15T03:50:25.387Z,10.90
2022-12-15T03:52:55.150Z,12.30
2022-12-15T03:55:23.330Z,14.83
2022-12-15T03:57:51.239Z,11.93
2022-12-15T04:00:20.483Z,16.40
2022-12-15T04:02:50.548Z,10.97
2022-12-15T04:05:31.223Z,14.40
2022-12-15T04:08:00.809Z,12.10
2022-12-15T04:10:34.403Z,13.63
2022-12-15T04:13:05.731Z,15.30
2022-12-15T04:15:33.961Z,13.60
2022-12-15T04:18:07.304Z,15.80
2022-12-15T04:20:34.644Z,12.20
2022-12-15T04:23:01.816Z,14.37
2022-12-15T04:25:47.439Z,11.70
2022-12-15T04:28:32.946Z,14.43
2022-12-15T04:31:28.191Z,15.13
2022-12-15T04:34:20.845Z,12.67
2022-12-15T04:37:10.842Z,14.70
2022-12-15T04:40:00.236Z,16.37
2022-12-15T04:42:47.131Z,15.90
2022-12-15T04:45:35.829Z,14.00
2022-12-15T04:48:21.213Z,13.93
2022-12-15T04:51:06.736Z,12.70
2022-12-15T04:53:52.151Z,14.80
2022-12-15T04:56:37.642Z,15.93
2022-12-15T04:59:23.794Z,12.90
2022-12-15T05:02:09.090Z,16.73
2022-12-15T05:04:54.741Z,14.50
2022-12-15T05:07:40.662Z,20.93
2022-12-15T05:10:26.567Z,18.43
2022-12-15T05:13:12.335Z,20.53
2022-12-15T05:15:57.584Z,17.40
2022-12-15T05:18:42.936Z,17.30
2022-12-15T05:21:28.235Z,19.60
2022-12-15T05:24:13.631Z,17.50
2022-12-15T05:26:58.967Z,19.87
2022-12-15T05:29:44.675Z,21.60
2022-12-15T05:32:13.338Z,17.23
2022-12-15T05:34:40.282Z,18.93
2022-12-15T05:37:07.545Z,16.30
2022-12-15T05:39:34.870Z,16.63
2022-12-15T05:42:01.972Z,18.33
2022-12-15T05:44:29.007Z,18.13
2022-12-15T05:46:56.343Z,17.63
2022-12-15T05:49:23.511Z,16.53
2022-12-15T05:51:50.785Z,20.77
2022-12-15T05:54:19.869Z,20.63
2022-12-15T05:56:50.502Z,21.10
2022-12-15T05:59:19.290Z,17.50
2022-12-15T06:01:46.688Z,17.17
2022-12-15T06:04:14.671Z,17.80
2022-12-15T06:06:42.016Z,18.97
2022-12-15T06:09:09.981Z,15.90
2022-12-15T06:11:37.595Z,17.97
2022-12-15T06:14:05.350Z,18.77
2022-12-15T06:16:33.203Z,22.73
2022-12-15T06:19:02.076Z,17.63
2022-12-15T06:21:37.991Z,19.50
2022-12-15T06:24:06.752Z,22.47
2022-12-15T06:26:37.873Z,21.70
2022-12-15T06:29:08.673Z,25.40
2022-12-15T06:31:37.617Z,25.00
2022-12-15T06:34:08.001Z,22.50
2022-12-15T06:36:35.408Z,22.77
2022-12-15T06:39:05.360Z,20.63
2022-12-15T06:41:32.741Z,22.40
2022-12-15T06:44:01.154Z,22.83
2022-12-15T06:46:31.138Z,23.80
2022-12-15T06:48:59.240Z,20.50
2022-12-15T06:51:26.876Z,21.23
2022-12-15T06:53:55.320Z,22.23
2022-12-15T06:56:34.708Z,25.60
2022-12-15T06:59:04.030Z,27.50
2022-12-15T07:01:31.910Z,22.80
2022-12-15T07:04:04.808Z,20.60
2022-12-15T07:06:37.480Z,24.17
2022-12-15T07:09:13.387Z,22.27
2022-12-15T07:11:40.626Z,21.17
2022-12-15T07:14:07.633Z,26.53
2022-12-15T07:16:34.700Z,24.10
2022-12-15T07:19:01.743Z,27.40
2022-12-15T07:21:28.850Z,42.30
2022-12-15T07:23:57.221Z,70.27
2022-12-15T07:26:25.179Z,104.53
2022-12-15T07:28:53.737Z,87.33
2022-12-15T07:31:22.081Z,58.73
2022-12-15T07:33:49.347Z,31.47
2022-12-15T07:36:16.678Z,26.47
2022-12-15T07:38:45.652Z,30.57
2022-12-15T07:41:18.754Z,26.83
2022-12-15T07:43:47.170Z,29.53
2022-12-15T07:46:14.288Z,27.87
2022-12-15T07:48:41.453Z,27.93
2022-12-15T07:51:15.609Z,30.00
2022-12-15T07:53:46.712Z,23.33
2022-12-15T07:56:13.801Z,24.80
2022-12-15T07:58:40.650Z,24.73
2022-12-15T08:01:11.513Z,26.00
2022-12-15T08:03:39.863Z,24.20
2022-12-15T08:06:13.101Z,24.07
2022-12-15T08:08:40.669Z,25.90
2022-12-15T08:11:17.405Z,30.37
2022-12-15T08:16:33.334Z,27.53
2022-12-15T08:19:00.321Z,21.77
2022-12-15T08:21:27.413Z,25.97
2022-12-15T08:23:55.217Z,27.20
2022-12-15T08:26:28.213Z,38.83
2022-12-15T08:29:11.701Z,58.97
2022-12-15T08:31:44.387Z,28.13
2022-12-15T08:34:11.353Z,21.80
2022-12-15T08:36:38.363Z,21.37
2022-12-15T08:39:05.266Z,18.17
2022-12-15T08:41:33.052Z,18.97
2022-12-15T08:44:02.644Z,19.23
2022-12-15T08:46:34.744Z,18.00
2022-12-15T08:49:03.022Z,16.20
2022-12-15T08:51:32.379Z,19.63
2022-12-15T08:54:00.529Z,16.63
2022-12-15T08:56:29.043Z,21.37
2022-12-15T08:58:59.978Z,16.30
2022-12-15T09:01:29.211Z,16.43
2022-12-15T09:03:57.542Z,21.60
2022-12-15T09:06:28.294Z,32.13
2022-12-15T09:09:01.406Z,100.50
2022-12-15T09:11:30.097Z,47.07
2022-12-15T09:13:57.604Z,22.30
2022-12-15T09:16:25.662Z,22.30
2022-12-15T09:18:56.573Z,17.00
2022-12-15T09:21:26.777Z,22.07
2022-12-15T09:24:00.352Z,19.50
2022-12-15T09:26:30.323Z,18.37
2022-12-15T09:28:57.924Z,16.50
2022-12-15T09:31:32.545Z,16.50
2022-12-15T09:34:01.033Z,17.07
2022-12-15T09:36:30.178Z,19.33
2022-12-15T09:38:57.047Z,20.83
2022-12-15T09:41:30.411Z,16.70
2022-12-15T09:44:04.545Z,21.70
2022-12-15T09:46:50.151Z,56.90
2022-12-15T09:49:39.018Z,37.77
2022-12-15T09:52:17.174Z,22.33
2022-12-15T09:54:45.056Z,17.20
2022-12-15T09:57:53.941Z,16.20
2022-12-15T10:00:25.624Z,20.27
2022-12-15T10:02:52.716Z,27.07
2022-12-15T10:09:28.889Z,20.53
2022-12-15T10:12:16.317Z,19.37
2022-12-15T10:14:50.207Z,16.77
2022-12-15T10:17:21.557Z,12.03
2022-12-15T10:20:06.698Z,11.83
2022-12-15T10:22:37.325Z,14.50
2022-12-15T10:25:31.521Z,13.17
2022-12-15T10:28:16.829Z,14.10
2022-12-15T10:31:03.976Z,12.63
2022-12-15T10:33:37.075Z,15.80
2022-12-15T10:36:16.423Z,13.93
2022-12-15T10:38:50.412Z,13.27
2022-12-15T10:41:24.537Z,15.83
2022-12-15T10:43:53.848Z,11.57
2022-12-15T10:46:28.419Z,11.50
2022-12-15T10:49:08.259Z,13.50
2022-12-15T10:51:52.317Z,12.80
2022-12-15T10:54:19.448Z,11.70
2022-12-15T10:56:57.606Z,13.27
2022-12-15T10:59:38.656Z,15.03
2022-12-15T11:02:23.905Z,16.07
2022-12-15T11:05:16.876Z,13.70
2022-12-15T11:07:50.734Z,11.63
2022-12-15T11:10:25.544Z,13.40
2022-12-15T11:13:10.441Z,12.57
2022-12-15T11:15:42.057Z,43.80
2022-12-15T11:18:22.136Z,40.77
2022-12-15T11:21:03.355Z,85.93
2022-12-15T11:24:16.739Z,34.63
2022-12-15T11:26:46.902Z,16.73
2022-12-15T11:29:36.892Z,12.53
2022-12-15T11:32:07.329Z,15.60
2022-12-15T11:34:43.018Z,14.10
2022-12-15T11:38:03.916Z,13.10
2022-12-15T11:40:42.117Z,12.10
2022-12-15T11:43:55.080Z,15.40
2022-12-15T11:46:25.799Z,12.87
2022-12-15T11:49:26.221Z,12.77
2022-12-15T11:52:01.789Z,17.43
2022-12-15T11:54:55.364Z,15.43
2022-12-15T11:58:09.512Z,13.40
2022-12-15T12:00:43.697Z,18.83
2022-12-15T12:03:26.701Z,15.90
2022-12-15T12:06:11.332Z,16.80
2022-12-15T12:09:02.213Z,14.73
2022-12-15T12:11:37.833Z,16.50
2022-12-15T12:14:50.584Z,14.10
2022-12-15T12:17:41.443Z,15.30
2022-12-15T12:20:23.711Z,15.23
2022-12-15T12:23:04.868Z,13.83
2022-12-15T12:26:02.937Z,16.63
2022-12-15T12:28:54.460Z,15.30
2022-12-15T12:31:41.347Z,13.67
2022-12-15T12:34:23.604Z,17.03
2022-12-15T12:36:52.023Z,15.30
2022-12-15T12:39:23.808Z,14.47
2022-12-15T12:42:07.726Z,13.73
2022-12-15T12:44:37.939Z,16.70
2022-12-15T12:47:19.008Z,15.00
2022-12-15T12:49:51.926Z,16.13
2022-12-15T12:52:33.459Z,17.70
2022-12-15T12:55:27.657Z,18.90
2022-12-15T12:57:55.786Z,18.57
2022-12-15T13:00:33.381Z,21.20
2022-12-15T13:03:20.326Z,23.47
2022-12-15T13:05:50.636Z,19.33
2022-12-15T13:08:50.827Z,17.63
2022-12-15T13:11:51.192Z,17.23
2022-12-15T13:14:39.936Z,23.00
2022-12-15T13:17:32.887Z,17.00
2022-12-15T13:20:02.528Z,17.67
2022-12-15T13:22:36.083Z,18.03
2022-12-15T13:25:39.052Z,19.67
2022-12-15T13:28:43.877Z,19.87
2022-12-15T13:31:20.904Z,16.90
2022-12-15T13:33:56.366Z,18.30
2022-12-15T13:36:41.346Z,18.47
2022-12-15T13:39:17.225Z,16.80
2022-12-15T13:42:15.050Z,19.73
2022-12-15T13:45:04.071Z,18.17
2022-12-15T13:47:31.505Z,18.00
2022-12-15T13:50:16.832Z,17.67
2022-12-15T13:53:17.839Z,19.90
2022-12-15T13:55:52.456Z,16.60
2022-12-15T13:58:21.872Z,15.43
2022-12-15T14:00:55.768Z,18.30
2022-12-15T14:03:23.717Z,19.07
2022-12-15T14:05:59.403Z,19.83
2022-12-15T14:08:29.798Z,19.73
2022-12-15T14:11:00.188Z,17.40
2022-12-15T14:13:36.540Z,21.53
2022-12-15T14:16:18.556Z,20.00
2022-12-15T14:19:08.817Z,25.17
2022-12-15T14:21:35.934Z,27.37
2022-12-15T14:24:37.501Z,20.73
2022-12-15T14:26:53.304Z,23.20
2022-12-15T14:29:21.109Z,21.20
2022-12-15T14:31:57.488Z,23.73
2022-12-15T14:34:32.487Z,22.97
2022-12-15T14:37:03.922Z,21.70
2022-12-15T14:39:43.376Z,21.70
2022-12-15T14:42:26.322Z,22.17
2022-12-15T14:44:57.822Z,20.27
2022-12-15T14:47:35.209Z,23.87
2022-12-15T14:50:04.245Z,22.20
2022-12-15T14:52:43.126Z,21.83
2022-12-15T14:55:34.432Z,20.97
2022-12-15T14:58:03.006Z,20.40
2022-12-15T15:00:34.319Z,23.37
2022-12-15T15:03:03.793Z,18.80
2022-12-15T15:03:19.902Z,20.33
2022-12-15T15:05:50.296Z,22.07
2022-12-15T15:08:29.358Z,21.93
2022-12-15T15:11:03.362Z,20.57
2022-12-15T15:13:39.980Z,20.63
2022-12-15T15:16:15.528Z,23.70
2022-12-15T15:18:43.291Z,23.37
2022-12-15T15:21:19.321Z,21.30
2022-12-15T15:24:25.505Z,22.73
2022-12-15T15:26:53.507Z,22.63
2022-12-15T15:29:41.241Z,21.30
2022-12-15T15:32:22.856Z,22.03
2022-12-15T15:34:49.902Z,21.20
2022-12-15T15:37:25.093Z,18.47
2022-12-15T15:39:56.063Z,21.50
2022-12-15T15:42:26.529Z,22.33
2022-12-15T15:44:57.514Z,19.63
2022-12-15T15:47:26.594Z,22.57
2022-12-15T15:49:55.548Z,21.20
2022-12-15T15:52:23.047Z,20.27
2022-12-15T15:54:51.855Z,18.83
2022-12-15T15:57:19.601Z,21.60
2022-12-15T15:59:47.024Z,25.10
2022-12-15T16:02:15.480Z,23.43
2022-12-15T16:04:44.028Z,28.97
2022-12-15T16:07:23.323Z,27.70
2022-12-15T16:09:51.617Z,23.07
2022-12-15T16:12:30.148Z,19.87
2022-12-15T16:14:57.291Z,20.30
2022-12-15T16:17:25.342Z,23.17
2022-12-15T16:19:52.262Z,25.67
2022-12-15T16:22:21.734Z,33.00
2022-12-15T16:24:49.071Z,25.80
2022-12-15T16:27:16.585Z,29.47
2022-12-15T16:29:44.499Z,30.63
2022-12-15T16:32:13.268Z,43.83
2022-12-15T16:34:41.998Z,34.80
2022-12-15T16:37:25.803Z,36.77
2022-12-15T16:39:52.947Z,32.97
2022-12-15T16:42:19.887Z,30.13
2022-12-15T16:44:46.879Z,35.27
2022-12-15T16:47:14.896Z,28.37
2022-12-15T16:49:41.747Z,32.80
2022-12-15T16:52:20.292Z,27.60
2022-12-15T16:54:49.172Z,25.33
2022-12-15T16:57:16.158Z,33.33
2022-12-15T16:59:43.116Z,31.87
2022-12-15T17:02:28.854Z,29.03
2022-12-15T17:04:56.909Z,27.23
2022-12-15T17:07:27.777Z,31.50
2022-12-15T17:09:54.686Z,30.50
2022-12-15T17:12:21.604Z,29.77
2022-12-15T17:14:48.637Z,28.10
2022-12-15T17:17:18.788Z,26.27
2022-12-15T17:20:11.829Z,30.00
2022-12-15T17:22:33.378Z,33.50
2022-12-15T17:25:00.538Z,36.23
2022-12-15T17:27:28.958Z,33.10
2022-12-15T17:29:58.083Z,34.90
2022-12-15T17:32:25.007Z,32.53
2022-12-15T17:34:52.123Z,34.07
2022-12-15T17:37:19.157Z,31.13
2022-12-15T17:39:50.940Z,34.07
2022-12-15T17:42:20.300Z,34.33
2022-12-15T17:44:48.564Z,32.03
2022-12-15T17:47:17.093Z,38.93
2022-12-15T17:49:44.139Z,31.00
2022-12-15T17:52:34.630Z,31.30
2022-12-15T17:55:04.229Z,38.13
2022-12-15T17:57:32.038Z,35.37
2022-12-15T17:59:59.745Z,31.93
2022-12-15T18:02:26.817Z,31.37
2022-12-15T18:04:55.247Z,31.70
2022-12-15T18:07:23.736Z,33.67
2022-12-15T18:09:52.107Z,40.70
2022-12-15T18:12:26.130Z,36.60
2022-12-15T18:14:54.951Z,32.87
2022-12-15T18:17:22.680Z,33.70
2022-12-15T18:19:49.558Z,36.83
2022-12-15T18:22:24.691Z,34.30
2022-12-15T18:24:53.742Z,34.87
2022-12-15T18:27:28.652Z,35.43
2022-12-15T18:29:59.399Z,37.93
2022-12-15T18:32:27.620Z,34.37
2022-12-15T18:34:55.270Z,36.53
2022-12-15T18:37:25.014Z,38.13
2022-12-15T18:39:52.748Z,37.60
2022-12-15T18:42:21.574Z,40.37
2022-12-15T18:44:51.951Z,38.13
2022-12-15T18:47:22.532Z,36.67
2022-12-15T18:49:49.586Z,38.20
2022-12-15T18:52:23.193Z,43.27
2022-12-15T18:54:52.982Z,34.23
2022-12-15T18:57:30.746Z,40.07
2022-12-15T19:00:01.957Z,37.70
2022-12-15T19:02:29.077Z,40.10
2022-12-15T19:04:56.439Z,41.20
2022-12-15T19:07:23.436Z,38.60
2022-12-15T19:09:50.783Z,34.33
2022-12-15T19:12:19.897Z,38.50
2022-12-15T19:14:51.892Z,41.57
2022-12-15T19:17:40.238Z,36.87
2022-12-15T19:20:39.045Z,35.00
2022-12-15T19:23:07.115Z,39.27
2022-12-15T19:25:35.315Z,34.07
2022-12-15T19:28:02.343Z,36.33
2022-12-15T19:30:41.602Z,35.53
2022-12-15T19:33:11.553Z,34.20
2022-12-15T19:35:42.435Z,39.97
2022-12-15T19:38:35.708Z,35.40
2022-12-15T19:41:02.623Z,34.83
2022-12-15T19:43:29.839Z,33.63
2022-12-15T19:45:57.707Z,38.50
2022-12-15T19:48:24.844Z,32.80
2022-12-15T19:50:52.362Z,34.80
2022-12-15T19:53:26.110Z,35.73
2022-12-15T19:55:56.382Z,45.60
2022-12-15T19:58:35.818Z,33.13
2022-12-15T20:01:08.744Z,33.30
2022-12-15T20:03:36.630Z,35.93
2022-12-15T20:06:12.274Z,34.77
2022-12-15T20:08:42.240Z,34.97
2022-12-15T20:11:28.852Z,37.37
2022-12-15T20:13:56.435Z,34.87
2022-12-15T20:16:24.204Z,35.27
2022-12-15T20:18:55.077Z,38.60
2022-12-15T20:21:26.039Z,37.90
2022-12-15T20:24:07.209Z,37.28
2022-12-15T20:26:36.780Z,31.03
2022-12-15T20:29:05.676Z,28.80
2022-12-15T20:31:32.634Z,31.27
2022-12-15T20:33:59.668Z,32.77
2022-12-15T20:36:29.924Z,31.60
2022-12-15T20:38:57.615Z,30.17
2022-12-15T20:41:28.027Z,64.57
2022-12-15T20:43:56.134Z,50.70
2022-12-15T20:46:28.259Z,46.20
2022-12-15T20:48:55.951Z,36.27
2022-12-15T20:51:31.231Z,29.93
2022-12-15T20:54:02.148Z,30.30
2022-12-15T20:56:29.382Z,25.20
2022-12-15T20:58:58.006Z,26.17
2022-12-15T21:01:32.819Z,31.30
2022-12-15T21:04:02.675Z,32.47
2022-12-15T21:06:30.691Z,28.53
2022-12-15T21:08:57.611Z,27.80
2022-12-15T21:11:28.067Z,31.57
2022-12-15T21:13:58.783Z,34.00
2022-12-15T21:16:29.015Z,42.77
2022-12-15T21:19:20.181Z,33.10
2022-12-15T21:21:51.984Z,27.43
2022-12-15T21:24:26.241Z,31.40
2022-12-15T21:26:53.873Z,32.40
2022-12-15T21:29:26.311Z,31.20
2022-12-15T21:31:53.314Z,30.30
2022-12-15T21:34:20.393Z,31.23
2022-12-15T21:36:51.981Z,28.70
2022-12-15T21:39:33.552Z,34.87
2022-12-15T21:42:11.246Z,27.80
2022-12-15T21:44:38.120Z,31.40
2022-12-15T21:47:52.234Z,31.77
2022-12-15T21:50:19.513Z,35.03
2022-12-15T21:52:47.330Z,25.70
2022-12-15T21:55:17.062Z,29.37
2022-12-15T21:57:44.892Z,29.80
2022-12-15T22:00:15.450Z,31.10
2022-12-15T22:02:42.445Z,28.03
2022-12-15T22:05:23.320Z,28.37
2022-12-15T22:07:51.244Z,27.33
2022-12-15T22:10:19.284Z,28.97
2022-12-15T22:12:59.089Z,30.50
2022-12-15T22:15:26.599Z,29.70
2022-12-15T22:17:53.694Z,32.47
2022-12-15T22:20:23.698Z,30.07
2022-12-15T22:22:51.162Z,30.60
2022-12-15T22:25:21.759Z,30.47
2022-12-15T22:27:49.167Z,32.70
2022-12-15T22:30:23.562Z,30.40
2022-12-15T22:32:50.840Z,32.10
2022-12-15T22:35:23.961Z,44.13
2022-12-15T22:37:56.088Z,38.57
2022-12-15T22:40:24.413Z,32.23
2022-12-15T22:42:55.541Z,26.73
2022-12-15T22:45:24.087Z,33.50
2022-12-15T22:47:52.502Z,31.80
2022-12-15T22:50:26.931Z,30.03
2022-12-15T22:52:54.960Z,30.03
2022-12-15T22:55:24.458Z,27.17
2022-12-15T22:58:08.174Z,26.50
2022-12-15T23:00:35.109Z,30.63
2022-12-15T23:03:02.488Z,27.87
2022-12-15T23:05:29.473Z,28.47
2022-12-15T23:07:56.505Z,28.10
2022-12-15T23:10:41.728Z,25.37
2022-12-15T23:13:08.717Z,27.77
2022-12-15T23:15:54.730Z,25.30
2022-12-15T23:18:21.780Z,26.67
2022-12-15T23:20:48.783Z,22.53
2022-12-15T23:23:15.643Z,22.37
2022-12-15T23:25:43.548Z,26.10
2022-12-15T23:28:10.423Z,25.73
2022-12-15T23:30:37.443Z,27.30
2022-12-15T23:33:04.414Z,25.37
2022-12-15T23:35:31.600Z,22.83
2022-12-15T23:37:58.691Z,22.93
2022-12-15T23:40:25.553Z,19.90
2022-12-15T23:42:53.646Z,22.23
2022-12-15T23:45:20.989Z,23.33
2022-12-15T23:47:48.032Z,23.97
2022-12-15T23:50:14.941Z,18.50
2022-12-15T23:52:41.845Z,19.53
2022-12-15T23:55:11.817Z,19.37
2022-12-15T23:57:39.397Z,21.03
